sensor_id;sensor_type;location;lat;lon;timestamp;P1;durP1;ratioP1;P2;durP2;ratioP2
24084;SDS011;12268;52.110;5.548;2023-09-18T00:00:46;75.25;;;36.00;;
24084;SDS011;12268;52.110;5.548;2023-09-18T00:03:15;80.82;;;32.80;;
24084;SDS011;12268;52.110;5.548;2023-09-18T00:05:45;62.43;;;31.43;;
24084;SDS011;12268;52.110;5.548;2023-09-18T00:08:14;89.57;;;31.05;;
24084;SDS011;12268;52.110;5.548;2023-09-18T00:10:41;62.78;;;30.92;;
24084;SDS011;12268;52.110;5.548;2023-09-18T00:13:07;55.83;;;29.17;;
24084;SDS011;12268;52.110;5.548;2023-09-18T00:15:33;74.63;;;30.45;;
24084;SDS011;12268;52.110;5.548;2023-09-18T00:17:59;99.03;;;30.38;;
24084;SDS011;12268;52.110;5.548;2023-09-18T00:20:24;77.15;;;31.35;;
24084;SDS011;12268;52.110;5.548;2023-09-18T00:22:55;78.40;;;32.85;;
24084;SDS011;12268;52.110;5.548;2023-09-18T00:25:21;63.67;;;31.25;;
24084;SDS011;12268;52.110;5.548;2023-09-18T00:27:47;71.70;;;31.92;;
24084;SDS011;12268;52.110;5.548;2023-09-18T00:30:13;66.90;;;32.58;;
24084;SDS011;12268;52.110;5.548;2023-09-18T00:32:38;67.18;;;31.90;;
24084;SDS011;12268;52.110;5.548;2023-09-18T00:35:10;175.90;;;34.55;;
24084;SDS011;12268;52.110;5.548;2023-09-18T00:37:35;76.18;;;32.80;;
24084;SDS011;12268;52.110;5.548;2023-09-18T00:40:02;108.38;;;32.10;;
24084;SDS011;12268;52.110;5.548;2023-09-18T00:42:29;85.57;;;31.77;;
24084;SDS011;12268;52.110;5.548;2023-09-18T00:44:55;84.15;;;30.85;;
24084;SDS011;12268;52.110;5.548;2023-09-18T00:47:20;114.75;;;30.23;;
24084;SDS011;12268;52.110;5.548;2023-09-18T00:49:47;64.78;;;30.55;;
24084;SDS011;12268;52.110;5.548;2023-09-18T00:52:13;51.80;;;29.13;;
24084;SDS011;12268;52.110;5.548;2023-09-18T00:54:40;53.22;;;26.95;;
24084;SDS011;12268;52.110;5.548;2023-09-18T00:57:07;87.50;;;29.30;;
24084;SDS011;12268;52.110;5.548;2023-09-18T00:59:35;48.25;;;27.70;;
24084;SDS011;12268;52.110;5.548;2023-09-18T01:02:01;86.43;;;29.13;;
24084;SDS011;12268;52.110;5.548;2023-09-18T01:04:27;70.45;;;30.77;;
24084;SDS011;12268;52.110;5.548;2023-09-18T01:06:54;80.32;;;31.48;;
24084;SDS011;12268;52.110;5.548;2023-09-18T01:09:21;71.78;;;32.58;;
24084;SDS011;12268;52.110;5.548;2023-09-18T01:11:54;64.95;;;32.15;;
24084;SDS011;12268;52.110;5.548;2023-09-18T01:16:57;91.40;;;33.78;;
24084;SDS011;12268;52.110;5.548;2023-09-18T01:22:11;83.72;;;33.38;;
24084;SDS011;12268;52.110;5.548;2023-09-18T01:24:41;58.35;;;32.40;;
24084;SDS011;12268;52.110;5.548;2023-09-18T01:27:09;70.50;;;33.00;;
24084;SDS011;12268;52.110;5.548;2023-09-18T01:29:39;68.85;;;32.35;;
24084;SDS011;12268;52.110;5.548;2023-09-18T01:32:05;90.70;;;33.15;;
24084;SDS011;12268;52.110;5.548;2023-09-18T01:34:32;65.90;;;31.58;;
24084;SDS011;12268;52.110;5.548;2023-09-18T01:37:01;77.45;;;33.20;;
24084;SDS011;12268;52.110;5.548;2023-09-18T01:39:30;93.72;;;34.45;;
24084;SDS011;12268;52.110;5.548;2023-09-18T01:42:06;64.88;;;33.85;;
24084;SDS011;12268;52.110;5.548;2023-09-18T01:44:34;62.72;;;32.67;;
24084;SDS011;12268;52.110;5.548;2023-09-18T01:47:02;74.53;;;32.92;;
24084;SDS011;12268;52.110;5.548;2023-09-18T01:49:32;66.88;;;33.22;;
24084;SDS011;12268;52.110;5.548;2023-09-18T01:51:59;65.50;;;33.42;;
24084;SDS011;12268;52.110;5.548;2023-09-18T01:54:26;67.43;;;34.78;;
24084;SDS011;12268;52.110;5.548;2023-09-18T01:56:52;88.43;;;33.38;;
24084;SDS011;12268;52.110;5.548;2023-09-18T01:59:18;89.53;;;35.67;;
24084;SDS011;12268;52.110;5.548;2023-09-18T02:01:44;85.18;;;34.60;;
24084;SDS011;12268;52.110;5.548;2023-09-18T02:04:10;69.55;;;33.45;;
24084;SDS011;12268;52.110;5.548;2023-09-18T02:06:36;73.28;;;34.15;;
24084;SDS011;12268;52.110;5.548;2023-09-18T02:09:01;211.35;;;36.65;;
24084;SDS011;12268;52.110;5.548;2023-09-18T02:11:28;62.30;;;31.92;;
24084;SDS011;12268;52.110;5.548;2023-09-18T02:13:54;57.90;;;30.60;;
24084;SDS011;12268;52.110;5.548;2023-09-18T02:16:21;65.63;;;32.80;;
24084;SDS011;12268;52.110;5.548;2023-09-18T02:18:49;55.97;;;31.27;;
24084;SDS011;12268;52.110;5.548;2023-09-18T02:21:21;59.95;;;31.73;;
24084;SDS011;12268;52.110;5.548;2023-09-18T02:23:50;61.63;;;31.08;;
24084;SDS011;12268;52.110;5.548;2023-09-18T02:26:17;59.35;;;30.55;;
24084;SDS011;12268;52.110;5.548;2023-09-18T02:28:47;64.88;;;31.88;;
24084;SDS011;12268;52.110;5.548;2023-09-18T02:31:13;65.50;;;31.05;;
24084;SDS011;12268;52.110;5.548;2023-09-18T02:33:39;71.45;;;34.05;;
24084;SDS011;12268;52.110;5.548;2023-09-18T02:36:06;103.18;;;33.38;;
24084;SDS011;12268;52.110;5.548;2023-09-18T02:38:32;85.65;;;31.35;;
24084;SDS011;12268;52.110;5.548;2023-09-18T02:41:00;82.15;;;32.38;;
24084;SDS011;12268;52.110;5.548;2023-09-18T02:43:25;66.93;;;33.13;;
24084;SDS011;12268;52.110;5.548;2023-09-18T02:45:51;63.80;;;32.53;;
24084;SDS011;12268;52.110;5.548;2023-09-18T02:48:17;62.40;;;32.13;;
24084;SDS011;12268;52.110;5.548;2023-09-18T02:50:43;68.20;;;32.30;;
24084;SDS011;12268;52.110;5.548;2023-09-18T02:53:22;77.90;;;34.53;;
24084;SDS011;12268;52.110;5.548;2023-09-18T02:55:50;75.15;;;33.63;;
24084;SDS011;12268;52.110;5.548;2023-09-18T02:58:17;74.63;;;33.65;;
24084;SDS011;12268;52.110;5.548;2023-09-18T03:00:44;76.70;;;33.92;;
24084;SDS011;12268;52.110;5.548;2023-09-18T03:03:12;63.10;;;33.03;;
24084;SDS011;12268;52.110;5.548;2023-09-18T03:05:38;71.45;;;33.10;;
24084;SDS011;12268;52.110;5.548;2023-09-18T03:08:05;74.15;;;33.55;;
24084;SDS011;12268;52.110;5.548;2023-09-18T03:10:37;66.00;;;33.42;;
24084;SDS011;12268;52.110;5.548;2023-09-18T03:13:05;64.25;;;32.10;;
24084;SDS011;12268;52.110;5.548;2023-09-18T03:15:35;69.18;;;32.17;;
24084;SDS011;12268;52.110;5.548;2023-09-18T03:18:02;60.10;;;31.77;;
24084;SDS011;12268;52.110;5.548;2023-09-18T03:20:29;57.75;;;31.35;;
24084;SDS011;12268;52.110;5.548;2023-09-18T03:22:56;103.50;;;31.48;;
24084;SDS011;12268;52.110;5.548;2023-09-18T03:25:23;76.25;;;31.00;;
24084;SDS011;12268;52.110;5.548;2023-09-18T03:27:53;68.97;;;30.00;;
24084;SDS011;12268;52.110;5.548;2023-09-18T03:30:20;64.88;;;31.38;;
24084;SDS011;12268;52.110;5.548;2023-09-18T03:32:47;71.22;;;30.42;;
24084;SDS011;12268;52.110;5.548;2023-09-18T03:35:16;61.60;;;31.45;;
24084;SDS011;12268;52.110;5.548;2023-09-18T03:37:45;67.43;;;31.45;;
24084;SDS011;12268;52.110;5.548;2023-09-18T03:40:15;72.25;;;31.08;;
24084;SDS011;12268;52.110;5.548;2023-09-18T03:42:42;59.78;;;31.80;;
24084;SDS011;12268;52.110;5.548;2023-09-18T03:45:08;62.75;;;33.85;;
24084;SDS011;12268;52.110;5.548;2023-09-18T03:47:35;56.50;;;33.10;;
24084;SDS011;12268;52.110;5.548;2023-09-18T03:50:02;59.10;;;32.35;;
24084;SDS011;12268;52.110;5.548;2023-09-18T03:52:28;52.53;;;31.63;;
24084;SDS011;12268;52.110;5.548;2023-09-18T03:54:53;64.47;;;33.00;;
24084;SDS011;12268;52.110;5.548;2023-09-18T03:57:19;59.25;;;34.70;;
24084;SDS011;12268;52.110;5.548;2023-09-18T03:59:44;66.13;;;34.95;;
24084;SDS011;12268;52.110;5.548;2023-09-18T04:02:10;65.80;;;35.00;;
24084;SDS011;12268;52.110;5.548;2023-09-18T04:04:35;68.75;;;36.30;;
24084;SDS011;12268;52.110;5.548;2023-09-18T04:07:05;65.32;;;34.13;;
24084;SDS011;12268;52.110;5.548;2023-09-18T04:09:31;65.47;;;35.08;;
24084;SDS011;12268;52.110;5.548;2023-09-18T04:11:56;62.10;;;34.53;;
24084;SDS011;12268;52.110;5.548;2023-09-18T04:14:22;61.85;;;33.72;;
24084;SDS011;12268;52.110;5.548;2023-09-18T04:16:48;58.72;;;34.60;;
24084;SDS011;12268;52.110;5.548;2023-09-18T04:19:13;62.55;;;35.20;;
24084;SDS011;12268;52.110;5.548;2023-09-18T04:21:39;67.35;;;35.38;;
24084;SDS011;12268;52.110;5.548;2023-09-18T04:24:04;65.25;;;34.90;;
24084;SDS011;12268;52.110;5.548;2023-09-18T04:26:30;62.10;;;34.15;;
24084;SDS011;12268;52.110;5.548;2023-09-18T04:28:56;62.78;;;34.22;;
24084;SDS011;12268;52.110;5.548;2023-09-18T04:31:22;62.00;;;34.22;;
24084;SDS011;12268;52.110;5.548;2023-09-18T04:33:48;61.92;;;33.83;;
24084;SDS011;12268;52.110;5.548;2023-09-18T04:36:14;62.13;;;32.88;;
24084;SDS011;12268;52.110;5.548;2023-09-18T04:38:40;60.53;;;33.17;;
24084;SDS011;12268;52.110;5.548;2023-09-18T04:41:06;57.50;;;33.15;;
24084;SDS011;12268;52.110;5.548;2023-09-18T04:43:33;60.78;;;33.58;;
24084;SDS011;12268;52.110;5.548;2023-09-18T04:45:59;61.65;;;32.63;;
24084;SDS011;12268;52.110;5.548;2023-09-18T04:48:25;58.58;;;30.70;;
24084;SDS011;12268;52.110;5.548;2023-09-18T04:50:51;57.70;;;32.80;;
24084;SDS011;12268;52.110;5.548;2023-09-18T04:53:16;55.33;;;33.53;;
24084;SDS011;12268;52.110;5.548;2023-09-18T04:55:42;69.47;;;35.58;;
24084;SDS011;12268;52.110;5.548;2023-09-18T04:58:07;60.35;;;35.10;;
24084;SDS011;12268;52.110;5.548;2023-09-18T05:00:33;58.40;;;34.55;;
24084;SDS011;12268;52.110;5.548;2023-09-18T05:03:01;60.35;;;32.30;;
24084;SDS011;12268;52.110;5.548;2023-09-18T05:05:28;52.08;;;31.38;;
24084;SDS011;12268;52.110;5.548;2023-09-18T05:07:54;57.90;;;30.92;;
24084;SDS011;12268;52.110;5.548;2023-09-18T05:10:20;64.85;;;31.83;;
24084;SDS011;12268;52.110;5.548;2023-09-18T05:12:45;55.38;;;31.27;;
24084;SDS011;12268;52.110;5.548;2023-09-18T05:15:11;52.60;;;30.00;;
24084;SDS011;12268;52.110;5.548;2023-09-18T05:17:42;51.38;;;29.70;;
24084;SDS011;12268;52.110;5.548;2023-09-18T05:20:10;41.80;;;24.85;;
24084;SDS011;12268;52.110;5.548;2023-09-18T07:39:45;24.63;;;17.50;;
24084;SDS011;12268;52.110;5.548;2023-09-18T07:42:11;24.15;;;16.83;;
24084;SDS011;12268;52.110;5.548;2023-09-18T07:44:37;21.80;;;14.98;;
24084;SDS011;12268;52.110;5.548;2023-09-18T07:47:02;23.63;;;16.10;;
24084;SDS011;12268;52.110;5.548;2023-09-18T07:49:28;21.42;;;15.82;;
24084;SDS011;12268;52.110;5.548;2023-09-18T07:51:54;22.67;;;14.68;;
24084;SDS011;12268;52.110;5.548;2023-09-18T07:54:20;19.23;;;15.38;;
24084;SDS011;12268;52.110;5.548;2023-09-18T07:59:21;17.75;;;13.30;;
24084;SDS011;12268;52.110;5.548;2023-09-18T08:01:50;19.00;;;13.85;;
24084;SDS011;12268;52.110;5.548;2023-09-18T08:04:15;17.27;;;12.68;;
24084;SDS011;12268;52.110;5.548;2023-09-18T08:06:41;19.95;;;13.80;;
24084;SDS011;12268;52.110;5.548;2023-09-18T08:09:06;13.55;;;11.80;;
24084;SDS011;12268;52.110;5.548;2023-09-18T08:11:35;15.93;;;12.70;;
24084;SDS011;12268;52.110;5.548;2023-09-18T08:14:01;16.60;;;11.80;;
24084;SDS011;12268;52.110;5.548;2023-09-18T08:16:28;14.05;;;11.82;;
24084;SDS011;12268;52.110;5.548;2023-09-18T08:18:54;14.02;;;11.75;;
24084;SDS011;12268;52.110;5.548;2023-09-18T08:21:21;13.82;;;10.93;;
24084;SDS011;12268;52.110;5.548;2023-09-18T08:23:48;15.57;;;11.20;;
24084;SDS011;12268;52.110;5.548;2023-09-18T08:26:14;15.27;;;10.75;;
24084;SDS011;12268;52.110;5.548;2023-09-18T08:28:39;13.57;;;10.02;;
24084;SDS011;12268;52.110;5.548;2023-09-18T08:31:08;12.82;;;9.80;;
24084;SDS011;12268;52.110;5.548;2023-09-18T08:33:34;11.27;;;9.40;;
24084;SDS011;12268;52.110;5.548;2023-09-18T08:36:01;15.85;;;10.63;;
24084;SDS011;12268;52.110;5.548;2023-09-18T08:38:27;13.48;;;9.38;;
24084;SDS011;12268;52.110;5.548;2023-09-18T08:40:53;16.23;;;9.18;;
24084;SDS011;12268;52.110;5.548;2023-09-18T08:43:19;12.50;;;9.25;;
24084;SDS011;12268;52.110;5.548;2023-09-18T08:45:47;11.45;;;9.35;;
24084;SDS011;12268;52.110;5.548;2023-09-18T08:48:17;13.70;;;8.57;;
24084;SDS011;12268;52.110;5.548;2023-09-18T08:50:43;9.95;;;8.23;;
24084;SDS011;12268;52.110;5.548;2023-09-18T08:53:10;9.77;;;8.07;;
24084;SDS011;12268;52.110;5.548;2023-09-18T08:55:36;11.88;;;8.00;;
24084;SDS011;12268;52.110;5.548;2023-09-18T08:58:01;11.52;;;7.72;;
24084;SDS011;12268;52.110;5.548;2023-09-18T09:00:27;13.18;;;7.57;;
24084;SDS011;12268;52.110;5.548;2023-09-18T09:02:53;9.55;;;7.18;;
24084;SDS011;12268;52.110;5.548;2023-09-18T09:05:22;11.10;;;6.93;;
24084;SDS011;12268;52.110;5.548;2023-09-18T09:07:49;8.38;;;6.40;;
24084;SDS011;12268;52.110;5.548;2023-09-18T09:10:15;10.07;;;6.32;;
24084;SDS011;12268;52.110;5.548;2023-09-18T09:15:18;10.07;;;6.07;;
24084;SDS011;12268;52.110;5.548;2023-09-18T09:17:45;10.75;;;6.25;;
24084;SDS011;12268;52.110;5.548;2023-09-18T09:20:12;7.75;;;5.90;;
24084;SDS011;12268;52.110;5.548;2023-09-18T09:22:39;9.60;;;5.70;;
24084;SDS011;12268;52.110;5.548;2023-09-18T09:25:25;8.30;;;5.55;;
24084;SDS011;12268;52.110;5.548;2023-09-18T09:27:52;8.50;;;5.35;;
24084;SDS011;12268;52.110;5.548;2023-09-18T09:30:19;9.10;;;5.47;;
24084;SDS011;12268;52.110;5.548;2023-09-18T09:32:50;7.72;;;4.85;;
24084;SDS011;12268;52.110;5.548;2023-09-18T09:35:21;7.63;;;4.88;;
24084;SDS011;12268;52.110;5.548;2023-09-18T09:37:55;6.63;;;4.57;;
24084;SDS011;12268;52.110;5.548;2023-09-18T09:40:22;7.10;;;4.60;;
24084;SDS011;12268;52.110;5.548;2023-09-18T09:42:53;5.90;;;4.60;;
24084;SDS011;12268;52.110;5.548;2023-09-18T09:45:26;4.75;;;3.80;;
24084;SDS011;12268;52.110;5.548;2023-09-18T09:47:54;6.40;;;4.40;;
24084;SDS011;12268;52.110;5.548;2023-09-18T09:50:19;8.20;;;4.43;;
24084;SDS011;12268;52.110;5.548;2023-09-18T09:52:47;7.55;;;4.35;;
24084;SDS011;12268;52.110;5.548;2023-09-18T09:57:46;6.15;;;4.10;;
24084;SDS011;12268;52.110;5.548;2023-09-18T10:00:13;8.48;;;3.95;;
24084;SDS011;12268;52.110;5.548;2023-09-18T10:02:54;6.13;;;4.15;;
24084;SDS011;12268;52.110;5.548;2023-09-18T10:05:24;5.50;;;3.78;;
24084;SDS011;12268;52.110;5.548;2023-09-18T10:07:52;10.13;;;4.78;;
24084;SDS011;12268;52.110;5.548;2023-09-18T10:10:19;6.80;;;4.45;;
24084;SDS011;12268;52.110;5.548;2023-09-18T10:12:45;7.35;;;5.05;;
24084;SDS011;12268;52.110;5.548;2023-09-18T10:15:14;8.73;;;4.05;;
24084;SDS011;12268;52.110;5.548;2023-09-18T10:17:42;8.15;;;3.80;;
24084;SDS011;12268;52.110;5.548;2023-09-18T10:20:14;5.93;;;3.50;;
24084;SDS011;12268;52.110;5.548;2023-09-18T10:22:42;7.13;;;4.20;;
24084;SDS011;12268;52.110;5.548;2023-09-18T10:25:19;6.45;;;4.07;;
24084;SDS011;12268;52.110;5.548;2023-09-18T10:27:48;6.57;;;4.00;;
24084;SDS011;12268;52.110;5.548;2023-09-18T10:30:14;9.55;;;4.70;;
24084;SDS011;12268;52.110;5.548;2023-09-18T10:32:43;6.63;;;4.40;;
24084;SDS011;12268;52.110;5.548;2023-09-18T10:35:10;7.68;;;5.78;;
24084;SDS011;12268;52.110;5.548;2023-09-18T10:37:37;11.18;;;6.50;;
24084;SDS011;12268;52.110;5.548;2023-09-18T10:40:08;12.23;;;6.35;;
24084;SDS011;12268;52.110;5.548;2023-09-18T10:42:34;7.95;;;5.80;;
24084;SDS011;12268;52.110;5.548;2023-09-18T10:45:02;8.10;;;5.93;;
24084;SDS011;12268;52.110;5.548;2023-09-18T10:47:32;10.55;;;7.30;;
24084;SDS011;12268;52.110;5.548;2023-09-18T10:49:58;9.45;;;6.90;;
24084;SDS011;12268;52.110;5.548;2023-09-18T10:52:24;9.43;;;7.78;;
24084;SDS011;12268;52.110;5.548;2023-09-18T10:54:49;10.52;;;8.75;;
24084;SDS011;12268;52.110;5.548;2023-09-18T10:57:16;11.35;;;9.10;;
24084;SDS011;12268;52.110;5.548;2023-09-18T10:59:43;12.60;;;9.85;;
24084;SDS011;12268;52.110;5.548;2023-09-18T11:02:10;11.43;;;10.23;;
24084;SDS011;12268;52.110;5.548;2023-09-18T11:04:40;12.95;;;10.18;;
24084;SDS011;12268;52.110;5.548;2023-09-18T11:07:06;13.60;;;10.50;;
24084;SDS011;12268;52.110;5.548;2023-09-18T11:09:40;11.57;;;9.55;;
24084;SDS011;12268;52.110;5.548;2023-09-18T11:12:08;11.32;;;10.00;;
24084;SDS011;12268;52.110;5.548;2023-09-18T11:17:35;11.02;;;9.93;;
24084;SDS011;12268;52.110;5.548;2023-09-18T11:20:23;11.40;;;10.18;;
24084;SDS011;12268;52.110;5.548;2023-09-18T11:22:57;18.48;;;12.05;;
24084;SDS011;12268;52.110;5.548;2023-09-18T11:25:41;11.43;;;10.35;;
24084;SDS011;12268;52.110;5.548;2023-09-18T11:28:14;14.60;;;12.15;;
24084;SDS011;12268;52.110;5.548;2023-09-18T11:30:49;12.57;;;11.38;;
24084;SDS011;12268;52.110;5.548;2023-09-18T11:41:27;13.05;;;10.70;;
24084;SDS011;12268;52.110;5.548;2023-09-18T11:46:38;14.35;;;11.15;;
24084;SDS011;12268;52.110;5.548;2023-09-18T11:49:07;15.82;;;11.05;;
24084;SDS011;12268;52.110;5.548;2023-09-18T11:51:34;14.63;;;11.68;;
24084;SDS011;12268;52.110;5.548;2023-09-18T11:54:00;11.82;;;9.05;;
24084;SDS011;12268;52.110;5.548;2023-09-18T11:56:28;12.45;;;10.15;;
24084;SDS011;12268;52.110;5.548;2023-09-18T11:58:55;10.90;;;8.13;;
24084;SDS011;12268;52.110;5.548;2023-09-18T12:01:20;8.02;;;6.70;;
24084;SDS011;12268;52.110;5.548;2023-09-18T12:03:53;10.95;;;5.53;;
24084;SDS011;12268;52.110;5.548;2023-09-18T12:06:26;9.25;;;5.88;;
24084;SDS011;12268;52.110;5.548;2023-09-18T12:08:52;10.50;;;5.82;;
24084;SDS011;12268;52.110;5.548;2023-09-18T12:11:18;10.30;;;5.50;;
24084;SDS011;12268;52.110;5.548;2023-09-18T12:13:46;8.02;;;5.38;;
24084;SDS011;12268;52.110;5.548;2023-09-18T12:16:13;8.57;;;5.35;;
24084;SDS011;12268;52.110;5.548;2023-09-18T12:18:44;9.32;;;6.00;;
24084;SDS011;12268;52.110;5.548;2023-09-18T12:21:14;7.70;;;5.43;;
24084;SDS011;12268;52.110;5.548;2023-09-18T12:23:42;9.68;;;5.60;;
24084;SDS011;12268;52.110;5.548;2023-09-18T12:26:10;9.43;;;4.82;;
24084;SDS011;12268;52.110;5.548;2023-09-18T12:28:40;10.43;;;4.78;;
24084;SDS011;12268;52.110;5.548;2023-09-18T12:31:11;8.20;;;5.65;;
24084;SDS011;12268;52.110;5.548;2023-09-18T12:33:37;8.23;;;5.75;;
24084;SDS011;12268;52.110;5.548;2023-09-18T12:36:05;9.32;;;5.35;;
24084;SDS011;12268;52.110;5.548;2023-09-18T12:38:31;11.07;;;5.57;;
24084;SDS011;12268;52.110;5.548;2023-09-18T12:40:57;6.18;;;5.10;;
24084;SDS011;12268;52.110;5.548;2023-09-18T12:43:38;9.23;;;5.55;;
24084;SDS011;12268;52.110;5.548;2023-09-18T12:46:06;7.22;;;5.45;;
24084;SDS011;12268;52.110;5.548;2023-09-18T12:48:36;6.95;;;6.05;;
24084;SDS011;12268;52.110;5.548;2023-09-18T12:51:11;8.57;;;5.60;;
24084;SDS011;12268;52.110;5.548;2023-09-18T12:53:38;7.70;;;6.03;;
24084;SDS011;12268;52.110;5.548;2023-09-18T12:56:08;7.78;;;6.30;;
24084;SDS011;12268;52.110;5.548;2023-09-18T12:58:36;7.40;;;6.10;;
24084;SDS011;12268;52.110;5.548;2023-09-18T13:01:09;9.77;;;6.13;;
24084;SDS011;12268;52.110;5.548;2023-09-18T13:03:46;7.43;;;5.68;;
24084;SDS011;12268;52.110;5.548;2023-09-18T13:06:15;6.38;;;5.05;;
24084;SDS011;12268;52.110;5.548;2023-09-18T13:08:45;8.68;;;5.72;;
24084;SDS011;12268;52.110;5.548;2023-09-18T13:11:11;5.47;;;4.65;;
24084;SDS011;12268;52.110;5.548;2023-09-18T13:13:39;6.82;;;4.50;;
24084;SDS011;12268;52.110;5.548;2023-09-18T13:16:06;9.65;;;5.03;;
24084;SDS011;12268;52.110;5.548;2023-09-18T13:18:33;8.98;;;4.93;;
24084;SDS011;12268;52.110;5.548;2023-09-18T13:20:59;6.93;;;4.40;;
24084;SDS011;12268;52.110;5.548;2023-09-18T13:23:31;9.85;;;5.03;;
24084;SDS011;12268;52.110;5.548;2023-09-18T13:26:01;7.78;;;4.40;;
24084;SDS011;12268;52.110;5.548;2023-09-18T13:28:28;6.30;;;4.30;;
24084;SDS011;12268;52.110;5.548;2023-09-18T13:30:56;8.45;;;4.13;;
24084;SDS011;12268;52.110;5.548;2023-09-18T13:33:22;7.65;;;3.97;;
24084;SDS011;12268;52.110;5.548;2023-09-18T13:35:48;10.02;;;4.47;;
24084;SDS011;12268;52.110;5.548;2023-09-18T13:38:14;5.47;;;3.72;;
24084;SDS011;12268;52.110;5.548;2023-09-18T13:40:40;8.38;;;3.80;;
24084;SDS011;12268;52.110;5.548;2023-09-18T13:43:07;8.38;;;3.75;;
24084;SDS011;12268;52.110;5.548;2023-09-18T13:45:35;7.72;;;4.20;;
24084;SDS011;12268;52.110;5.548;2023-09-18T13:48:01;7.35;;;3.67;;
24084;SDS011;12268;52.110;5.548;2023-09-18T13:50:33;5.28;;;3.80;;
24084;SDS011;12268;52.110;5.548;2023-09-18T13:53:01;10.40;;;3.80;;
24084;SDS011;12268;52.110;5.548;2023-09-18T13:55:28;6.47;;;3.40;;
24084;SDS011;12268;52.110;5.548;2023-09-18T13:57:54;7.65;;;3.55;;
24084;SDS011;12268;52.110;5.548;2023-09-18T14:00:21;6.60;;;3.22;;
24084;SDS011;12268;52.110;5.548;2023-09-18T14:02:47;5.38;;;3.50;;
24084;SDS011;12268;52.110;5.548;2023-09-18T14:05:12;9.75;;;3.42;;
24084;SDS011;12268;52.110;5.548;2023-09-18T14:07:38;5.63;;;3.25;;
24084;SDS011;12268;52.110;5.548;2023-09-18T14:10:05;5.32;;;3.05;;
24084;SDS011;12268;52.110;5.548;2023-09-18T14:12:32;4.75;;;3.10;;
24084;SDS011;12268;52.110;5.548;2023-09-18T14:14:58;4.97;;;3.05;;
24084;SDS011;12268;52.110;5.548;2023-09-18T14:17:24;4.95;;;2.90;;
24084;SDS011;12268;52.110;5.548;2023-09-18T14:19:50;7.07;;;3.10;;
24084;SDS011;12268;52.110;5.548;2023-09-18T14:22:18;4.70;;;3.05;;
24084;SDS011;12268;52.110;5.548;2023-09-18T14:24:44;10.70;;;4.55;;
24084;SDS011;12268;52.110;5.548;2023-09-18T14:27:10;4.03;;;2.97;;
24084;SDS011;12268;52.110;5.548;2023-09-18T14:29:37;4.93;;;2.78;;
24084;SDS011;12268;52.110;5.548;2023-09-18T14:32:03;5.45;;;3.03;;
24084;SDS011;12268;52.110;5.548;2023-09-18T14:34:29;4.72;;;3.10;;
24084;SDS011;12268;52.110;5.548;2023-09-18T14:36:55;5.55;;;3.28;;
24084;SDS011;12268;52.110;5.548;2023-09-18T14:39:24;4.20;;;3.13;;
24084;SDS011;12268;52.110;5.548;2023-09-18T14:41:50;4.57;;;2.80;;
24084;SDS011;12268;52.110;5.548;2023-09-18T14:44:16;6.10;;;3.17;;
24084;SDS011;12268;52.110;5.548;2023-09-18T14:46:41;8.77;;;3.10;;
24084;SDS011;12268;52.110;5.548;2023-09-18T14:49:09;5.82;;;2.67;;
24084;SDS011;12268;52.110;5.548;2023-09-18T14:51:34;7.35;;;3.40;;
24084;SDS011;12268;52.110;5.548;2023-09-18T14:54:00;7.13;;;2.75;;
24084;SDS011;12268;52.110;5.548;2023-09-18T14:56:28;4.15;;;2.65;;
24084;SDS011;12268;52.110;5.548;2023-09-18T14:58:53;5.88;;;3.28;;
24084;SDS011;12268;52.110;5.548;2023-09-18T15:01:20;6.50;;;3.03;;
24084;SDS011;12268;52.110;5.548;2023-09-18T15:03:46;8.05;;;3.33;;
24084;SDS011;12268;52.110;5.548;2023-09-18T15:06:15;5.10;;;3.40;;
24084;SDS011;12268;52.110;5.548;2023-09-18T15:08:41;5.10;;;3.20;;
24084;SDS011;12268;52.110;5.548;2023-09-18T15:11:07;6.85;;;3.90;;
24084;SDS011;12268;52.110;5.548;2023-09-18T15:13:33;5.57;;;3.42;;
24084;SDS011;12268;52.110;5.548;2023-09-18T15:16:00;7.38;;;3.05;;
24084;SDS011;12268;52.110;5.548;2023-09-18T15:18:28;8.27;;;3.70;;
24084;SDS011;12268;52.110;5.548;2023-09-18T15:20:54;7.60;;;4.30;;
24084;SDS011;12268;52.110;5.548;2023-09-18T15:23:21;8.15;;;3.72;;
24084;SDS011;12268;52.110;5.548;2023-09-18T15:25:47;8.45;;;3.05;;
24084;SDS011;12268;52.110;5.548;2023-09-18T15:28:15;6.60;;;2.88;;
24084;SDS011;12268;52.110;5.548;2023-09-18T15:30:42;5.82;;;1.88;;
24084;SDS011;12268;52.110;5.548;2023-09-18T15:33:08;6.38;;;2.20;;
24084;SDS011;12268;52.110;5.548;2023-09-18T15:35:33;8.95;;;1.98;;
24084;SDS011;12268;52.110;5.548;2023-09-18T15:37:59;3.80;;;1.63;;
24084;SDS011;12268;52.110;5.548;2023-09-18T15:40:26;2.97;;;1.80;;
24084;SDS011;12268;52.110;5.548;2023-09-18T15:42:51;4.43;;;1.80;;
24084;SDS011;12268;52.110;5.548;2023-09-18T15:45:17;6.57;;;2.00;;
24084;SDS011;12268;52.110;5.548;2023-09-18T15:47:43;2.78;;;1.73;;
24084;SDS011;12268;52.110;5.548;2023-09-18T15:50:09;3.58;;;2.08;;
24084;SDS011;12268;52.110;5.548;2023-09-18T15:52:36;4.07;;;2.17;;
24084;SDS011;12268;52.110;5.548;2023-09-18T15:55:02;2.83;;;2.00;;
24084;SDS011;12268;52.110;5.548;2023-09-18T15:57:30;3.95;;;2.05;;
24084;SDS011;12268;52.110;5.548;2023-09-18T15:59:58;7.40;;;2.05;;
24084;SDS011;12268;52.110;5.548;2023-09-18T16:02:24;4.00;;;2.25;;
24084;SDS011;12268;52.110;5.548;2023-09-18T16:04:50;4.85;;;2.28;;
24084;SDS011;12268;52.110;5.548;2023-09-18T16:07:18;3.83;;;2.33;;
24084;SDS011;12268;52.110;5.548;2023-09-18T16:09:44;5.47;;;2.35;;
24084;SDS011;12268;52.110;5.548;2023-09-18T16:12:10;4.93;;;2.63;;
24084;SDS011;12268;52.110;5.548;2023-09-18T16:14:35;4.53;;;2.65;;
24084;SDS011;12268;52.110;5.548;2023-09-18T16:17:01;5.13;;;2.53;;
24084;SDS011;12268;52.110;5.548;2023-09-18T16:19:30;3.58;;;2.20;;
24084;SDS011;12268;52.110;5.548;2023-09-18T16:21:56;7.43;;;2.53;;
24084;SDS011;12268;52.110;5.548;2023-09-18T16:24:22;4.50;;;2.35;;
24084;SDS011;12268;52.110;5.548;2023-09-18T16:26:48;4.40;;;2.28;;
24084;SDS011;12268;52.110;5.548;2023-09-18T16:29:13;3.70;;;2.33;;
24084;SDS011;12268;52.110;5.548;2023-09-18T16:31:39;5.53;;;2.42;;
24084;SDS011;12268;52.110;5.548;2023-09-18T16:34:04;4.60;;;2.50;;
24084;SDS011;12268;52.110;5.548;2023-09-18T16:36:31;4.47;;;2.80;;
24084;SDS011;12268;52.110;5.548;2023-09-18T16:38:56;4.70;;;2.35;;
24084;SDS011;12268;52.110;5.548;2023-09-18T16:41:22;5.10;;;2.92;;
24084;SDS011;12268;52.110;5.548;2023-09-18T16:43:47;4.28;;;2.65;;
24084;SDS011;12268;52.110;5.548;2023-09-18T16:46:13;4.40;;;2.75;;
24084;SDS011;12268;52.110;5.548;2023-09-18T16:48:38;5.13;;;2.75;;
24084;SDS011;12268;52.110;5.548;2023-09-18T16:51:04;5.47;;;3.17;;
24084;SDS011;12268;52.110;5.548;2023-09-18T16:53:30;6.60;;;2.53;;
24084;SDS011;12268;52.110;5.548;2023-09-18T16:55:55;5.30;;;2.70;;
24084;SDS011;12268;52.110;5.548;2023-09-18T16:58:21;7.53;;;2.92;;
24084;SDS011;12268;52.110;5.548;2023-09-18T17:00:46;5.63;;;2.80;;
24084;SDS011;12268;52.110;5.548;2023-09-18T17:03:12;6.60;;;2.65;;
24084;SDS011;12268;52.110;5.548;2023-09-18T17:05:38;5.28;;;3.17;;
24084;SDS011;12268;52.110;5.548;2023-09-18T17:08:04;6.07;;;2.92;;
24084;SDS011;12268;52.110;5.548;2023-09-18T17:10:31;7.22;;;3.63;;
24084;SDS011;12268;52.110;5.548;2023-09-18T17:12:57;5.70;;;3.25;;
24084;SDS011;12268;52.110;5.548;2023-09-18T17:15:22;6.78;;;3.67;;
24084;SDS011;12268;52.110;5.548;2023-09-18T17:17:48;7.90;;;3.60;;